createdAt,value
2023-02-20T00:00:29.862Z,7.53
2023-02-20T00:02:56.775Z,7.80
2023-02-20T00:05:23.810Z,8.87
2023-02-20T00:07:50.493Z,8.77
2023-02-20T00:10:18.407Z,9.03
2023-02-20T00:12:45.345Z,8.53
2023-02-20T00:15:15.269Z,10.73
2023-02-20T00:17:47.412Z,9.50
2023-02-20T00:20:16.183Z,10.53
2023-02-20T00:22:43.075Z,10.83
2023-02-20T00:25:10.164Z,9.00
2023-02-20T00:27:36.928Z,8.57
2023-02-20T00:30:04.833Z,11.73
2023-02-20T00:32:31.537Z,10.07
2023-02-20T00:34:58.250Z,12.83
2023-02-20T00:37:24.909Z,10.30
2023-02-20T00:39:51.604Z,10.87
2023-02-20T00:42:18.501Z,8.57
2023-02-20T00:44:45.191Z,7.27
2023-02-20T00:47:13.415Z,9.17
2023-02-20T00:49:40.073Z,10.43
2023-02-20T00:52:06.779Z,12.47
2023-02-20T00:54:33.465Z,9.70
2023-02-20T00:57:00.133Z,9.50
2023-02-20T00:59:26.806Z,9.33
2023-02-20T01:01:53.583Z,9.23
2023-02-20T01:04:20.854Z,8.37
2023-02-20T01:06:47.655Z,8.90
2023-02-20T01:09:14.718Z,10.60
2023-02-20T01:11:43.520Z,12.23
2023-02-20T01:14:10.764Z,8.77
2023-02-20T01:16:37.534Z,8.00
2023-02-20T01:19:04.370Z,8.80
2023-02-20T01:21:31.036Z,11.63
2023-02-20T01:23:57.711Z,11.20
2023-02-20T01:26:24.384Z,12.47
2023-02-20T01:28:51.079Z,11.87
2023-02-20T01:31:17.906Z,13.10
2023-02-20T01:33:44.739Z,11.70
2023-02-20T01:36:11.952Z,10.67
2023-02-20T01:38:41.173Z,10.80
2023-02-20T01:41:09.505Z,13.20
2023-02-20T01:43:36.610Z,10.47
2023-02-20T01:46:28.304Z,11.77
2023-02-20T01:49:06.284Z,13.17
2023-02-20T01:51:36.801Z,11.53
2023-02-20T01:54:07.576Z,14.73
2023-02-20T01:56:34.660Z,11.37
2023-02-20T01:59:02.907Z,15.33
2023-02-20T02:01:29.680Z,13.37
2023-02-20T02:04:00.014Z,12.60
2023-02-20T02:06:28.502Z,14.03
2023-02-20T02:09:01.006Z,13.77
2023-02-20T02:11:30.361Z,12.77
2023-02-20T02:13:57.105Z,15.67
2023-02-20T02:16:42.616Z,13.23
2023-02-20T02:19:28.305Z,18.07
2023-02-20T02:22:32.443Z,15.63
2023-02-20T02:25:32.847Z,11.43
2023-02-20T02:28:31.101Z,16.60
2023-02-20T02:31:15.115Z,14.83
2023-02-20T02:34:14.517Z,14.63
2023-02-20T02:37:01.166Z,11.93
2023-02-20T02:39:37.189Z,14.87
2023-02-20T02:42:22.887Z,13.33
2023-02-20T02:45:03.385Z,15.20
2023-02-20T02:47:46.303Z,15.90
2023-02-20T02:50:27.136Z,14.13
2023-02-20T02:52:55.386Z,15.90
2023-02-20T02:55:28.443Z,17.30
2023-02-20T02:58:02.520Z,14.20
2023-02-20T03:00:35.701Z,15.37
2023-02-20T03:03:17.228Z,13.50
2023-02-20T03:05:49.983Z,13.67
2023-02-20T03:08:39.927Z,14.63
2023-02-20T03:11:26.878Z,12.07
2023-02-20T03:14:19.648Z,13.47
2023-02-20T03:17:05.112Z,11.80
2023-02-20T03:19:41.106Z,10.67
2023-02-20T03:22:25.234Z,14.33
2023-02-20T03:24:59.727Z,15.17
2023-02-20T03:27:31.249Z,13.20
2023-02-20T03:30:00.165Z,17.00
2023-02-20T03:32:47.103Z,13.83
2023-02-20T03:35:34.533Z,15.03
2023-02-20T03:38:22.971Z,14.30
2023-02-20T03:41:09.009Z,13.87
2023-02-20T03:43:36.921Z,14.40
2023-02-20T03:46:08.450Z,12.53
2023-02-20T03:48:46.577Z,13.47
2023-02-20T03:51:14.059Z,15.13
2023-02-20T03:53:42.274Z,17.03
2023-02-20T03:56:13.968Z,14.40
2023-02-20T03:58:46.610Z,12.40
2023-02-20T04:01:15.701Z,13.63
2023-02-20T04:03:45.951Z,15.90
2023-02-20T04:06:14.290Z,18.03
2023-02-20T04:08:58.750Z,16.33
2023-02-20T04:11:31.385Z,12.90
2023-02-20T04:13:59.043Z,11.60
2023-02-20T04:16:26.237Z,11.63
2023-02-20T04:18:53.286Z,13.20
2023-02-20T04:21:35.320Z,15.60
2023-02-20T04:24:28.076Z,14.13
2023-02-20T04:26:55.445Z,13.57
2023-02-20T04:29:22.291Z,13.90
2023-02-20T04:31:48.994Z,15.20
2023-02-20T04:34:15.811Z,13.90
2023-02-20T04:36:42.578Z,11.67
2023-02-20T04:39:09.317Z,12.07
2023-02-20T04:41:36.001Z,11.40
2023-02-20T04:44:21.393Z,13.73
2023-02-20T04:46:48.176Z,10.73
2023-02-20T04:49:17.503Z,12.53
2023-02-20T04:51:44.208Z,11.07
2023-02-20T04:54:10.935Z,13.60
2023-02-20T04:56:37.613Z,11.13
2023-02-20T04:59:04.275Z,11.87
2023-02-20T05:01:31.315Z,9.70
2023-02-20T05:03:58.122Z,12.70
2023-02-20T05:06:25.014Z,12.90
2023-02-20T05:08:51.902Z,12.83
2023-02-20T05:11:18.583Z,10.77
2023-02-20T05:13:45.316Z,15.67
2023-02-20T05:16:13.982Z,13.70
2023-02-20T05:18:40.986Z,11.33
2023-02-20T05:21:26.271Z,13.97
2023-02-20T05:23:53.059Z,12.40
2023-02-20T05:26:21.954Z,12.27
2023-02-20T05:28:48.631Z,13.43
2023-02-20T05:31:17.644Z,12.87
2023-02-20T05:33:44.768Z,11.73
2023-02-20T05:36:11.925Z,11.63
2023-02-20T05:38:38.843Z,11.23
2023-02-20T05:41:05.937Z,14.07
2023-02-20T05:43:32.621Z,12.30
2023-02-20T05:45:59.342Z,12.10
2023-02-20T05:48:26.047Z,13.27
2023-02-20T05:50:54.091Z,10.60
2023-02-20T05:53:20.884Z,10.50
2023-02-20T05:55:47.605Z,11.30
2023-02-20T05:58:14.395Z,9.10
2023-02-20T06:00:41.204Z,13.67
2023-02-20T06:03:09.968Z,13.27
2023-02-20T06:05:36.730Z,11.70
2023-02-20T06:08:04.721Z,13.90
2023-02-20T06:10:31.607Z,14.10
2023-02-20T06:12:58.384Z,11.53
2023-02-20T06:15:25.412Z,14.13
2023-02-20T06:17:52.107Z,15.57
2023-02-20T06:20:19.116Z,14.13
2023-02-20T06:22:48.259Z,12.67
2023-02-20T06:25:15.069Z,13.43
2023-02-20T06:27:41.805Z,11.43
2023-02-20T06:30:09.630Z,15.27
2023-02-20T06:32:36.359Z,12.50
2023-02-20T06:35:03.211Z,11.80
2023-02-20T06:37:29.914Z,11.40
2023-02-20T06:39:56.677Z,11.40
2023-02-20T06:42:23.357Z,13.80
2023-02-20T06:44:50.054Z,9.27
2023-02-20T06:47:16.897Z,9.93
2023-02-20T06:49:44.023Z,15.00
2023-02-20T06:52:11.850Z,13.27
2023-02-20T06:54:38.598Z,13.50
2023-02-20T06:57:05.399Z,18.57
2023-02-20T06:59:32.312Z,11.23
2023-02-20T07:01:59.074Z,12.20
2023-02-20T07:04:27.728Z,14.03
2023-02-20T07:06:55.637Z,10.70
2023-02-20T07:09:22.434Z,15.33
2023-02-20T07:11:50.593Z,14.30
2023-02-20T07:14:17.486Z,10.50
2023-02-20T07:16:44.241Z,12.90
2023-02-20T07:19:10.935Z,13.87
2023-02-20T07:21:37.733Z,12.87
2023-02-20T07:24:05.074Z,12.77
2023-02-20T07:26:32.570Z,11.60
2023-02-20T07:29:00.853Z,11.90
2023-02-20T07:31:28.324Z,12.30
2023-02-20T07:33:55.081Z,7.97
2023-02-20T07:36:21.878Z,8.87
2023-02-20T07:39:02.599Z,10.87
2023-02-20T07:41:35.844Z,11.57
2023-02-20T07:44:02.805Z,10.60
2023-02-20T07:46:33.753Z,10.13
2023-02-20T07:49:07.217Z,8.53
2023-02-20T07:51:34.133Z,10.73
2023-02-20T07:54:01.347Z,10.70
2023-02-20T07:56:28.557Z,7.47
2023-02-20T07:58:55.270Z,9.13
2023-02-20T08:01:22.571Z,6.72
2023-02-20T08:03:49.307Z,7.50
2023-02-20T08:06:19.671Z,6.97
2023-02-20T08:08:50.408Z,6.47
2023-02-20T08:11:19.100Z,7.55
2023-02-20T08:13:46.196Z,7.40
2023-02-20T08:16:13.253Z,7.70
2023-02-20T08:18:40.515Z,9.55
2023-02-20T08:21:07.189Z,6.85
2023-02-20T08:23:33.913Z,6.20
2023-02-20T08:26:00.650Z,7.65
2023-02-20T08:28:28.028Z,6.75
2023-02-20T08:30:54.763Z,6.65
2023-02-20T08:33:21.433Z,4.80
2023-02-20T08:35:54.106Z,4.03
2023-02-20T08:38:37.543Z,6.97
2023-02-20T08:41:07.596Z,6.05
2023-02-20T08:43:35.730Z,5.57
2023-02-20T08:46:02.943Z,7.60
2023-02-20T08:48:29.715Z,5.20
2023-02-20T08:50:56.482Z,4.97
2023-02-20T08:53:23.282Z,4.40
2023-02-20T08:55:50.210Z,7.63
2023-02-20T08:58:21.727Z,4.78
2023-02-20T09:00:49.042Z,6.35
2023-02-20T09:03:16.428Z,3.03
2023-02-20T09:05:44.408Z,4.65
2023-02-20T09:08:11.486Z,3.88
2023-02-20T09:10:38.410Z,4.32
2023-02-20T09:13:05.778Z,4.30
2023-02-20T09:15:39.636Z,5.55
2023-02-20T09:18:09.962Z,5.03
2023-02-20T09:20:37.705Z,5.57
2023-02-20T09:23:04.868Z,5.53
2023-02-20T09:25:31.835Z,5.07
2023-02-20T09:27:58.611Z,4.57
2023-02-20T09:30:25.418Z,5.53
2023-02-20T09:32:52.619Z,5.07
2023-02-20T09:35:25.602Z,4.07
2023-02-20T09:37:53.028Z,4.30
2023-02-20T09:40:27.991Z,4.43
2023-02-20T09:43:22.622Z,4.15
2023-02-20T09:46:02.484Z,4.88
2023-02-20T09:48:58.152Z,3.65
2023-02-20T09:51:30.575Z,4.80
2023-02-20T09:54:10.696Z,3.92
2023-02-20T09:56:42.158Z,5.53
2023-02-20T09:59:37.582Z,5.38
2023-02-20T10:02:20.802Z,5.10
2023-02-20T10:05:01.620Z,3.20
2023-02-20T10:07:30.556Z,5.03
2023-02-20T10:09:59.014Z,3.67
2023-02-20T10:12:46.904Z,6.43
2023-02-20T10:15:22.674Z,5.13
2023-02-20T10:18:02.855Z,5.15
2023-02-20T10:20:49.009Z,6.35
2023-02-20T10:23:35.940Z,7.68
2023-02-20T10:26:07.045Z,4.72
2023-02-20T10:28:34.381Z,7.10
2023-02-20T10:31:31.205Z,6.70
2023-02-20T10:34:05.382Z,5.97
2023-02-20T10:36:39.810Z,4.57
2023-02-20T10:39:25.605Z,7.40
2023-02-20T10:42:13.061Z,8.10
2023-02-20T10:44:53.034Z,8.68
2023-02-20T10:47:33.551Z,5.72
2023-02-20T10:50:09.615Z,5.13
2023-02-20T10:52:46.930Z,6.30
2023-02-20T10:55:23.350Z,6.82
2023-02-20T10:58:00.608Z,6.18
2023-02-20T11:00:36.760Z,4.68
2023-02-20T11:03:12.487Z,4.78
2023-02-20T11:05:46.536Z,6.57
2023-02-20T11:08:13.850Z,7.15
2023-02-20T11:10:40.551Z,4.35
2023-02-20T11:13:15.638Z,7.03
2023-02-20T11:15:46.479Z,6.20
2023-02-20T11:18:35.042Z,6.38
2023-02-20T11:21:01.749Z,11.20
2023-02-20T11:23:37.406Z,7.43
2023-02-20T11:26:20.453Z,7.22
2023-02-20T11:29:00.206Z,6.68
2023-02-20T11:31:27.146Z,6.78
2023-02-20T11:33:56.628Z,6.18
2023-02-20T11:36:26.983Z,7.18
2023-02-20T11:38:59.161Z,5.68
2023-02-20T11:41:36.876Z,4.78
2023-02-20T11:44:13.161Z,8.77
2023-02-20T11:46:40.473Z,8.05
2023-02-20T11:49:10.758Z,8.38
2023-02-20T11:51:42.201Z,8.75
2023-02-20T11:54:19.343Z,9.10
2023-02-20T11:57:08.193Z,6.78
2023-02-20T11:59:37.109Z,8.38
2023-02-20T12:02:15.894Z,9.50
2023-02-20T12:04:44.673Z,8.10
2023-02-20T12:07:29.290Z,6.97
2023-02-20T12:09:59.680Z,7.60
2023-02-20T12:12:30.212Z,9.95
2023-02-20T12:14:57.026Z,8.15
2023-02-20T12:17:51.242Z,7.95
2023-02-20T12:20:22.276Z,5.03
2023-02-20T12:23:01.147Z,5.13
2023-02-20T12:25:33.180Z,7.57
2023-02-20T12:28:18.147Z,3.30
2023-02-20T12:31:09.223Z,5.28
2023-02-20T12:33:54.555Z,8.95
2023-02-20T12:36:34.739Z,5.28
2023-02-20T12:39:30.616Z,6.38
2023-02-20T12:42:07.993Z,6.22
2023-02-20T12:45:09.715Z,7.05
2023-02-20T12:47:39.785Z,6.95
2023-02-20T12:50:12.417Z,5.25
2023-02-20T12:52:39.239Z,4.82
2023-02-20T12:55:19.348Z,5.80
2023-02-20T12:57:58.406Z,3.83
2023-02-20T13:00:53.735Z,9.85
2023-02-20T13:03:23.835Z,6.97
2023-02-20T13:05:53.005Z,7.97
2023-02-20T13:08:32.923Z,6.85
2023-02-20T13:11:11.435Z,7.32
2023-02-20T13:13:54.933Z,6.88
2023-02-20T13:16:32.976Z,6.80
2023-02-20T13:19:11.271Z,5.00
2023-02-20T13:21:38.184Z,6.82
2023-02-20T13:24:20.300Z,4.75
2023-02-20T13:26:50.107Z,4.05
2023-02-20T13:29:26.839Z,5.30
2023-02-20T13:31:57.872Z,5.82
2023-02-20T13:34:35.337Z,5.35
2023-02-20T13:37:02.676Z,5.68
2023-02-20T13:39:32.468Z,5.35
2023-02-20T13:42:04.344Z,5.60
2023-02-20T13:44:43.477Z,5.28
2023-02-20T13:47:26.941Z,5.43
2023-02-20T13:49:58.858Z,5.70
2023-02-20T13:52:38.682Z,3.88
2023-02-20T13:55:11.296Z,5.05
2023-02-20T13:57:55.975Z,7.60
2023-02-20T14:00:26.530Z,4.45
2023-02-20T14:02:55.141Z,6.38
2023-02-20T14:05:31.478Z,5.97
2023-02-20T14:07:59.423Z,5.07
2023-02-20T14:10:35.689Z,3.65
2023-02-20T14:13:15.352Z,4.18
2023-02-20T14:15:57.004Z,5.28
2023-02-20T14:18:32.325Z,7.65
2023-02-20T14:21:08.952Z,7.30
2023-02-20T14:23:36.131Z,4.30
2023-02-20T14:26:09.819Z,8.65
2023-02-20T14:28:43.991Z,5.72
2023-02-20T14:31:34.239Z,5.15
2023-02-20T14:34:08.014Z,4.45
2023-02-20T14:36:56.241Z,4.38
2023-02-20T14:39:26.175Z,5.40
2023-02-20T14:41:54.963Z,3.78
2023-02-20T14:44:23.775Z,3.20
2023-02-20T14:47:14.024Z,5.88
2023-02-20T14:49:41.041Z,4.72
2023-02-20T14:52:10.570Z,7.85
2023-02-20T14:54:42.711Z,4.88
2023-02-20T14:57:16.189Z,5.85
2023-02-20T14:59:43.075Z,4.43
2023-02-20T15:02:14.709Z,4.45
2023-02-20T15:05:02.752Z,5.78
2023-02-20T15:07:29.977Z,35.45
2023-02-20T15:10:00.363Z,13.70
2023-02-20T15:12:33.666Z,7.88
2023-02-20T15:15:07.936Z,8.80
2023-02-20T15:17:38.323Z,8.10
2023-02-20T15:20:36.078Z,5.60
2023-02-20T15:23:15.557Z,5.57
2023-02-20T15:25:43.783Z,4.80
2023-02-20T15:28:18.056Z,5.53
2023-02-20T15:31:10.986Z,3.10
2023-02-20T15:33:39.532Z,6.83
2023-02-20T15:36:11.511Z,5.43
2023-02-20T15:38:38.253Z,6.37
2023-02-20T15:41:06.027Z,3.87
2023-02-20T15:43:47.153Z,6.43
2023-02-20T15:46:15.700Z,7.90
2023-02-20T15:48:44.631Z,5.57
2023-02-20T15:51:14.616Z,5.63
2023-02-20T15:53:42.814Z,5.27
2023-02-20T15:56:10.961Z,5.97
2023-02-20T15:58:39.991Z,8.17
2023-02-20T16:01:07.051Z,8.13
2023-02-20T16:03:49.265Z,6.83
2023-02-20T16:06:17.897Z,4.60
2023-02-20T16:08:45.980Z,5.27
2023-02-20T16:11:13.241Z,5.87
2023-02-20T16:13:43.344Z,7.57
2023-02-20T16:16:24.655Z,7.93
2023-02-20T16:18:54.460Z,3.53
2023-02-20T16:21:23.061Z,5.50
2023-02-20T16:23:50.481Z,9.70
2023-02-20T16:26:28.818Z,7.77
2023-02-20T16:28:59.679Z,7.80
2023-02-20T16:32:00.779Z,3.67
2023-02-20T16:34:33.346Z,5.50
2023-02-20T16:37:01.344Z,6.57
2023-02-20T16:39:28.131Z,6.00
2023-02-20T16:41:57.775Z,4.97
2023-02-20T16:44:43.013Z,6.70
2023-02-20T16:47:12.305Z,3.50
2023-02-20T16:49:40.131Z,4.93
2023-02-20T16:52:21.093Z,4.40
2023-02-20T16:54:49.707Z,4.70
2023-02-20T16:57:17.036Z,6.27
2023-02-20T16:59:44.446Z,6.70
2023-02-20T17:02:16.667Z,5.67
2023-02-20T17:04:43.654Z,6.10
2023-02-20T17:07:10.614Z,8.50
2023-02-20T17:09:44.276Z,5.23
2023-02-20T17:12:16.017Z,4.10
2023-02-20T17:14:43.361Z,7.20
2023-02-20T17:17:10.465Z,3.53
2023-02-20T17:19:38.630Z,7.17
2023-02-20T17:22:06.025Z,5.57
2023-02-20T17:24:33.352Z,6.73
2023-02-20T17:27:02.003Z,7.80
2023-02-20T17:29:28.998Z,7.47
2023-02-20T17:31:56.922Z,6.87
2023-02-20T17:34:23.677Z,5.23
2023-02-20T17:36:50.505Z,8.77
2023-02-20T17:39:23.112Z,4.67
2023-02-20T17:41:51.755Z,5.00
2023-02-20T17:44:22.139Z,6.17
2023-02-20T17:46:49.791Z,4.20
2023-02-20T17:49:16.865Z,6.40
2023-02-20T17:51:44.901Z,4.50
2023-02-20T17:54:12.846Z,8.47
2023-02-20T17:56:41.427Z,6.83
2023-02-20T17:59:08.911Z,6.90
2023-02-20T18:01:35.848Z,7.13
2023-02-20T18:04:06.420Z,6.17
2023-02-20T18:06:33.760Z,7.03
2023-02-20T18:09:01.149Z,7.90
2023-02-20T18:11:28.469Z,8.23
2023-02-20T18:13:56.589Z,7.73
2023-02-20T18:16:25.337Z,10.80
2023-02-20T18:18:52.192Z,8.67
2023-02-20T18:21:21.764Z,11.33
2023-02-20T18:23:48.449Z,9.10
2023-02-20T18:26:17.349Z,8.20
2023-02-20T18:28:44.524Z,11.67
2023-02-20T18:31:12.914Z,11.57
2023-02-20T18:33:40.625Z,7.90
2023-02-20T18:36:08.867Z,8.07
2023-02-20T18:38:36.304Z,8.67
2023-02-20T18:41:03.257Z,10.33
2023-02-20T18:43:30.201Z,9.10
2023-02-20T18:45:56.913Z,9.53
2023-02-20T18:48:23.703Z,10.67
2023-02-20T18:50:51.808Z,8.97
2023-02-20T18:53:18.667Z,8.73
2023-02-20T18:55:45.376Z,8.33
2023-02-20T18:58:12.167Z,8.53
2023-02-20T19:00:40.619Z,6.77
2023-02-20T19:03:08.061Z,8.63
2023-02-20T19:05:34.948Z,7.87
2023-02-20T19:08:03.968Z,7.53
2023-02-20T19:10:31.290Z,9.40
2023-02-20T19:12:58.845Z,11.97
2023-02-20T19:15:26.044Z,8.50
2023-02-20T19:17:53.501Z,9.87
2023-02-20T19:20:29.431Z,10.90
2023-02-20T19:22:58.429Z,8.63
2023-02-20T19:25:25.282Z,9.23
2023-02-20T19:27:52.751Z,8.17
2023-02-20T19:30:22.634Z,8.23
2023-02-20T19:32:49.460Z,10.17
2023-02-20T19:35:17.196Z,11.23
2023-02-20T19:37:43.992Z,8.37
2023-02-20T19:40:11.011Z,6.73
2023-02-20T19:42:39.255Z,8.93
2023-02-20T19:45:06.565Z,6.53
2023-02-20T19:47:33.246Z,7.03
2023-02-20T19:49:59.950Z,6.33
2023-02-20T19:52:26.776Z,7.20
2023-02-20T19:54:53.466Z,8.00
2023-02-20T19:57:20.223Z,8.37
2023-02-20T19:59:48.138Z,6.73
2023-02-20T20:02:17.202Z,8.07
2023-02-20T20:04:44.534Z,5.53
2023-02-20T20:07:11.913Z,7.57
2023-02-20T20:09:38.810Z,9.33
2023-02-20T20:12:30.297Z,8.30
2023-02-20T20:14:57.168Z,7.00
2023-02-20T20:17:24.289Z,6.60
2023-02-20T20:20:00.601Z,7.67
2023-02-20T20:22:29.222Z,10.17
2023-02-20T20:24:56.036Z,12.23
2023-02-20T20:27:23.651Z,13.03
2023-02-20T20:29:51.814Z,12.03
2023-02-20T20:32:20.166Z,13.33
2023-02-20T20:34:55.435Z,11.00
2023-02-20T20:37:24.201Z,9.30
2023-02-20T20:39:56.591Z,7.17
2023-02-20T20:42:25.348Z,11.30
2023-02-20T20:44:54.022Z,8.47
2023-02-20T20:47:21.852Z,8.43
2023-02-20T20:49:48.704Z,10.10
2023-02-20T20:52:15.514Z,8.93
2023-02-20T20:54:42.514Z,8.33
2023-02-20T20:57:09.191Z,11.17
2023-02-20T20:59:37.743Z,7.13
2023-02-20T21:02:04.751Z,8.47
2023-02-20T21:04:31.521Z,9.47
2023-02-20T21:06:58.234Z,11.07
2023-02-20T21:09:25.160Z,8.53
2023-02-20T21:11:51.973Z,9.93
2023-02-20T21:14:19.250Z,11.50
2023-02-20T21:16:46.114Z,8.97
2023-02-20T21:19:14.830Z,9.50
2023-02-20T21:21:41.596Z,8.50
2023-02-20T21:24:08.548Z,6.87
2023-02-20T21:26:38.010Z,9.43
2023-02-20T21:29:05.972Z,10.07
2023-02-20T21:31:32.857Z,9.07
2023-02-20T21:33:59.919Z,10.70
2023-02-20T21:36:27.453Z,7.87
2023-02-20T21:38:54.567Z,6.97
2023-02-20T21:41:41.733Z,8.70
2023-02-20T21:44:29.335Z,5.40
2023-02-20T21:47:02.506Z,7.93
2023-02-20T21:49:31.722Z,10.63
2023-02-20T21:51:59.154Z,9.67
2023-02-20T21:54:31.313Z,8.13
2023-02-20T21:56:58.894Z,7.23
2023-02-20T21:59:26.002Z,7.57
2023-02-20T22:01:53.511Z,7.03
2023-02-20T22:04:21.197Z,7.63
2023-02-20T22:07:07.526Z,8.53
2023-02-20T22:09:52.929Z,9.50
2023-02-20T22:12:38.384Z,8.23
2023-02-20T22:15:24.377Z,7.30
2023-02-20T22:18:10.276Z,9.17
2023-02-20T22:20:55.818Z,8.30
2023-02-20T22:23:41.261Z,6.93
2023-02-20T22:26:26.901Z,6.97
2023-02-20T22:29:12.487Z,7.40
2023-02-20T22:31:58.119Z,9.57
2023-02-20T22:34:43.770Z,7.73
2023-02-20T22:37:29.141Z,6.80
2023-02-20T22:40:14.572Z,9.40
2023-02-20T22:43:00.136Z,7.03
2023-02-20T22:45:45.470Z,9.70
2023-02-20T22:48:30.820Z,6.00
2023-02-20T22:51:16.522Z,8.50
2023-02-20T22:54:04.816Z,9.63
2023-02-20T22:56:50.598Z,8.17
2023-02-20T22:59:35.944Z,9.93
2023-02-20T23:02:21.512Z,9.30
2023-02-20T23:05:06.993Z,5.30
2023-02-20T23:07:52.553Z,8.53
2023-02-20T23:10:41.106Z,7.50
2023-02-20T23:13:26.468Z,8.30
2023-02-20T23:16:12.034Z,7.53
2023-02-20T23:18:57.358Z,9.87
2023-02-20T23:21:42.722Z,6.07
2023-02-20T23:24:28.192Z,6.77
2023-02-20T23:27:14.510Z,7.57
2023-02-20T23:29:59.998Z,4.50
2023-02-20T23:32:45.580Z,7.43
2023-02-20T23:35:31.757Z,11.40
2023-02-20T23:38:17.120Z,5.00
2023-02-20T23:41:02.623Z,8.77
2023-02-20T23:43:49.033Z,9.80
2023-02-20T23:46:34.614Z,7.53
2023-02-20T23:49:20.096Z,7.10
2023-02-20T23:52:14.985Z,8.50
2023-02-20T23:55:01.921Z,7.67
2023-02-20T23:57:47.554Z,9.60
